^^
Your Local Weather - Clay, NY Station Historical Data
Daily Summary for June 20, 2017 Units:  English    Metric   Both
« Previous Day
Next Day »
Daily Weekly Monthly Yearly Custom
  High: Low: Average:
Temperature: 75.2 °F 57.7 °F 65.9 °F
Dew Point: 61.9 °F 54.7 °F 58.6 °F
Humidity: 94% 54% 78%
Wind Speed: 5.0mph 0.0mph 1.6mph
Wind Gust: 13.0mph - -
Wind- - West
Pressure: 29.86 in 29.70 in -
Precipitation: 0.07 in    
Historical Graphs
 
 
Tabular Data for June 20, 2017
Time Temperature Dew Point Pressure Wind Wind Speed Wind Gust Humidity Rainfall Rate (Hourly) solar
00:02 63.2 °F 61.4 °F 29.73 in Calm     94% 0.00 in 0 W/m2
00:08 63.2 °F 61.4 °F 29.74 in Calm     94% 0.00 in 0 W/m2
00:14 63.3 °F 61.5 °F 29.73 in Calm     94% 0.00 in 0 W/m2
00:20 63.3 °F 61.5 °F 29.73 in Calm     94% 0.00 in 0 W/m2
00:26 63.3 °F 61.5 °F 29.73 in Calm     94% 0.00 in 0 W/m2
00:32 63.2 °F 61.4 °F 29.73 in Calm     94% 0.00 in 0 W/m2
00:38 63.2 °F 61.4 °F 29.72 in Calm     94% 0.00 in 0 W/m2
00:46 63.3 °F 61.5 °F 29.72 in Calm     94% 0.00 in 0 W/m2
00:52 63.3 °F 61.5 °F 29.72 in Calm     94% 0.00 in 0 W/m2
00:58 63.2 °F 61.4 °F 29.71 in Calm     94% 0.00 in 0 W/m2
01:04 63.2 °F 61.4 °F 29.71 in Calm     94% 0.00 in 0 W/m2
01:10 63.1 °F 61.3 °F 29.71 in Calm     94% 0.00 in 0 W/m2
01:16 63.1 °F 61.3 °F 29.71 in Calm     94% 0.00 in 0 W/m2
01:22 63.0 °F 61.2 °F 29.71 in Calm     94% 0.00 in 0 W/m2
01:28 62.9 °F 61.1 °F 29.71 in Calm     94% 0.00 in 0 W/m2
01:34 62.8 °F 61.0 °F 29.70 in Calm     94% 0.00 in 0 W/m2
01:40 62.8 °F 61.0 °F 29.70 in Calm     94% 0.00 in 0 W/m2
01:46 62.7 °F 60.9 °F 29.70 in Calm     94% 0.00 in 0 W/m2
01:52 62.7 °F 60.9 °F 29.70 in Calm     94% 0.00 in 0 W/m2
01:58 62.7 °F 60.9 °F 29.70 in Calm     94% 0.00 in 0 W/m2
02:04 62.7 °F 60.9 °F 29.71 in Calm     94% 0.00 in 0 W/m2
02:10 62.8 °F 61.0 °F 29.71 in Calm     94% 0.00 in 0 W/m2
02:16 62.7 °F 60.9 °F 29.71 in Calm     94% 0.00 in 0 W/m2
02:22 62.5 °F 60.7 °F 29.71 in NE 1.0 mph 1.0 mph 94% 0.00 in 0 W/m2
02:28 62.4 °F 60.7 °F 29.71 in SW 1.0 mph 2.0 mph 94% 0.00 in 0 W/m2
02:34 62.6 °F 60.8 °F 29.71 in SW 1.0 mph 4.0 mph 94% 0.00 in 0 W/m2
02:40 63.0 °F 60.9 °F 29.71 in SSW 2.0 mph 4.0 mph 93% 0.00 in 0 W/m2
02:46 63.5 °F 60.5 °F 29.71 in SW 3.0 mph 4.0 mph 90% 0.00 in 0 W/m2
02:52 63.8 °F 59.9 °F 29.71 in SSW 2.0 mph 5.0 mph 87% 0.00 in 0 W/m2
02:58 63.9 °F 59.6 °F 29.71 in SSE 3.0 mph 5.0 mph 86% 0.00 in 0 W/m2
03:04 64.0 °F 59.4 °F 29.71 in WSW 3.0 mph 7.0 mph 85% 0.00 in 0 W/m2
03:10 64.0 °F 59.4 °F 29.71 in WSW 2.0 mph 4.0 mph 85% 0.00 in 0 W/m2
03:16 64.0 °F 59.4 °F 29.71 in SSW 3.0 mph 6.0 mph 85% 0.00 in 0 W/m2
03:22 64.1 °F 59.5 °F 29.71 in SW 4.0 mph 6.0 mph 85% 0.00 in 0 W/m2
03:28 64.2 °F 59.6 °F 29.71 in SSE 4.0 mph 6.0 mph 85% 0.00 in 0 W/m2
03:34 64.1 °F 59.5 °F 29.72 in SSW 3.0 mph 3.0 mph 85% 0.00 in 0 W/m2
03:40 64.0 °F 59.4 °F 29.71 in SSW 2.0 mph 3.0 mph 85% 0.00 in 0 W/m2
03:46 64.2 °F 59.6 °F 29.71 in South 3.0 mph 3.0 mph 85% 0.00 in 0 W/m2
03:52 64.2 °F 59.6 °F 29.72 in WSW 2.0 mph 3.0 mph 85% 0.00 in 0 W/m2
03:58 64.1 °F 59.5 °F 29.71 in SW 1.0 mph 3.0 mph 85% 0.00 in 0 W/m2
04:02 64.1 °F 59.5 °F 29.72 in SW 2.0 mph 3.0 mph 85% 0.00 in 0 W/m2
04:08 64.1 °F 59.5 °F 29.72 in SW 1.0 mph 3.0 mph 85% 0.00 in 0 W/m2
04:14 64.0 °F 59.4 °F 29.72 in WSW 1.0 mph 5.0 mph 85% 0.00 in 0 W/m2
04:20 64.0 °F 59.1 °F 29.72 in SSW 2.0 mph 5.0 mph 84% 0.00 in 0 W/m2
04:26 64.1 °F 59.2 °F 29.72 in SSW 3.0 mph 8.0 mph 84% 0.00 in 0 W/m2
04:32 64.2 °F 59.3 °F 29.73 in SW 3.0 mph 3.0 mph 84% 0.00 in 0 W/m2
04:38 64.1 °F 59.2 °F 29.73 in SW 2.0 mph 3.0 mph 84% 0.00 in 0 W/m2
04:46 63.9 °F 59.0 °F 29.73 in West 1.0 mph 2.0 mph 84% 0.00 in 0 W/m2
04:52 63.6 °F 58.7 °F 29.73 in WSW 2.0 mph 4.0 mph 84% 0.00 in 0 W/m2
04:58 63.4 °F 58.5 °F 29.73 in West 2.0 mph 4.0 mph 84% 0.00 in 0 W/m2
05:04 63.3 °F 58.4 °F 29.73 in WSW 1.0 mph 2.0 mph 84% 0.00 in 0 W/m2
05:10 63.1 °F 58.5 °F 29.74 in WSW 2.0 mph 2.0 mph 85% 0.00 in 0 W/m2
05:16 63.0 °F 58.4 °F 29.74 in WSW 1.0 mph 2.0 mph 85% 0.00 in 0 W/m2
05:22 62.9 °F 58.3 °F 29.74 in SW 1.0 mph 1.0 mph 85% 0.00 in 0 W/m2
05:28 62.7 °F 58.1 °F 29.74 in Calm   1.0 mph 85% 0.00 in 0 W/m2
05:34 62.5 °F 57.9 °F 29.74 in Calm   1.0 mph 85% 0.00 in 5 W/m2
05:42 62.5 °F 57.9 °F 29.74 in WSW 1.0 mph 2.0 mph 85% 0.00 in 7 W/m2
05:48 62.4 °F 58.2 °F 29.74 in WSW 1.0 mph 2.0 mph 86% 0.00 in 9 W/m2
05:54 62.3 °F 58.1 °F 29.74 in WSW 1.0 mph 1.0 mph 86% 0.00 in 11 W/m2
06:00 62.3 °F 58.1 °F 29.74 in WSW 1.0 mph 1.0 mph 86% 0.00 in 12 W/m2
06:06 62.2 °F 58.0 °F 29.74 in Calm   1.0 mph 86% 0.00 in 19 W/m2
06:12 62.1 °F 57.9 °F 29.74 in Calm     86% 0.00 in 30 W/m2
06:18 62.0 °F 58.4 °F 29.75 in Calm   1.0 mph 88% 0.00 in 49 W/m2
06:24 62.2 °F 58.6 °F 29.75 in WSW 1.0 mph 2.0 mph 88% 0.00 in 105 W/m2
06:30 62.7 °F 58.8 °F 29.75 in West 1.0 mph 1.0 mph 87% 0.00 in 42 W/m2
06:36 63.1 °F 58.8 °F 29.76 in SSW 2.0 mph 3.0 mph 86% 0.00 in 62 W/m2
06:42 63.4 °F 58.8 °F 29.76 in SW 2.0 mph 5.0 mph 85% 0.00 in 60 W/m2
06:48 63.7 °F 59.1 °F 29.75 in SW 2.0 mph 5.0 mph 85% 0.00 in 151 W/m2
06:54 64.1 °F 59.2 °F 29.76 in WSW 2.0 mph 5.0 mph 84% 0.00 in 183 W/m2
07:00 64.5 °F 59.2 °F 29.76 in SW 2.0 mph 3.0 mph 83% 0.00 in 197 W/m2
07:06 64.7 °F 59.4 °F 29.76 in WSW 2.0 mph 5.0 mph 83% 0.00 in 214 W/m2
07:12 64.9 °F 59.3 °F 29.76 in South 3.0 mph 7.0 mph 82% 0.00 in 230 W/m2
07:18 65.1 °F 59.1 °F 29.76 in West 3.0 mph 7.0 mph 81% 0.00 in 244 W/m2
07:26 65.4 °F 58.7 °F 29.76 in West 3.0 mph 8.0 mph 79% 0.00 in 290 W/m2
07:32 65.6 °F 59.3 °F 29.76 in WSW 2.0 mph 3.0 mph 80% 0.00 in 283 W/m2
07:38 65.8 °F 59.1 °F 29.77 in SSW 3.0 mph 7.0 mph 79% 0.00 in 306 W/m2
07:44 66.0 °F 59.3 °F 29.77 in WSW 4.0 mph 4.0 mph 79% 0.00 in 320 W/m2
07:50 66.3 °F 59.2 °F 29.77 in SW 3.0 mph 3.0 mph 78% 0.00 in 255 W/m2
07:56 66.5 °F 59.1 °F 29.77 in SSW 3.0 mph 11.0 mph 77% 0.00 in 359 W/m2
08:02 66.6 °F 58.8 °F 29.77 in South 3.0 mph 3.0 mph 76% 0.00 in 376 W/m2
08:08 66.8 °F 59.0 °F 29.78 in SW 3.0 mph 5.0 mph 76% 0.00 in 406 W/m2
08:14 67.4 °F 60.3 °F 29.78 in SW 2.0 mph 3.0 mph 78% 0.00 in 464 W/m2
08:20 67.7 °F 59.1 °F 29.78 in SW 2.0 mph 3.0 mph 74% 0.00 in 473 W/m2
08:26 67.5 °F 58.2 °F 29.78 in WNW 4.0 mph 8.0 mph 72% 0.00 in 497 W/m2
08:32 67.4 °F 58.1 °F 29.78 in SSW 4.0 mph 7.0 mph 72% 0.00 in 294 W/m2
08:38 67.4 °F 58.1 °F 29.78 in WSW 5.0 mph 9.0 mph 72% 0.00 in 97 W/m2
08:44 67.6 °F 58.2 °F 29.79 in SW 4.0 mph 5.0 mph 72% 0.00 in 499 W/m2
08:50 67.6 °F 57.9 °F 29.79 in WSW 5.0 mph 5.0 mph 71% 0.00 in 536 W/m2
08:56 67.7 °F 58.0 °F 29.79 in WSW 5.0 mph 9.0 mph 71% 0.00 in 666 W/m2
09:00 67.6 °F 57.9 °F 29.79 in WSW 5.0 mph 5.0 mph 71% 0.00 in 185 W/m2
09:06 67.5 °F 58.2 °F 29.79 in NW 4.0 mph 6.0 mph 72% 0.00 in 705 W/m2
09:12 67.9 °F 58.9 °F 29.79 in WSW 3.0 mph 4.0 mph 73% 0.00 in 216 W/m2
09:18 67.9 °F 57.8 °F 29.79 in West 3.0 mph 13.0 mph 70% 0.00 in 176 W/m2
09:24 67.5 °F 57.8 °F 29.79 in West 5.0 mph 9.0 mph 71% 0.00 in 160 W/m2
09:30 67.6 °F 57.9 °F 29.79 in WSW 5.0 mph 5.0 mph 71% 0.00 in 229 W/m2
09:36 67.9 °F 58.1 °F 29.79 in SW 4.0 mph 5.0 mph 71% 0.00 in 202 W/m2
09:42 68.1 °F 57.5 °F 29.79 in South 3.0 mph 3.0 mph 69% 0.00 in 299 W/m2
09:48 68.2 °F 57.6 °F 29.79 in NNW 2.0 mph 3.0 mph 69% 0.00 in 232 W/m2
09:54 68.1 °F 57.5 °F 29.80 in SW 2.0 mph 2.0 mph 69% 0.00 in 301 W/m2
10:00 68.3 °F 57.3 °F 29.80 in WSW 2.0 mph 4.0 mph 68% 0.00 in 204 W/m2
10:06 68.6 °F 57.2 °F 29.80 in NW 4.0 mph 6.0 mph 67% 0.00 in 874 W/m2
10:12 69.1 °F 58.1 °F 29.80 in WSW 4.0 mph 4.0 mph 68% 0.00 in 176 W/m2
10:18 69.0 °F 57.6 °F 29.80 in WSW 3.0 mph 8.0 mph 67% 0.00 in 229 W/m2
10:24 69.2 °F 56.5 °F 29.80 in SW 3.0 mph 4.0 mph 64% 0.00 in 698 W/m2
10:30 69.4 °F 56.7 °F 29.80 in WSW 3.0 mph 3.0 mph 64% 0.00 in 425 W/m2
10:36 69.5 °F 57.2 °F 29.80 in WNW 3.0 mph 13.0 mph 65% 0.00 in 285 W/m2
10:42 69.8 °F 58.3 °F 29.80 in SW 3.0 mph 3.0 mph 67% 0.00 in 262 W/m2
10:48 69.6 °F 56.9 °F 29.80 in WSW 3.0 mph 6.0 mph 64% 0.00 in 288 W/m2
10:54 69.1 °F 57.7 °F 29.81 in West 4.0 mph 4.0 mph 67% 0.00 in 195 W/m2
11:00 68.7 °F 57.7 °F 29.80 in SSW 2.0 mph 2.0 mph 68% 0.00 in 200 W/m2
11:06 68.9 °F 57.5 °F 29.81 in West 3.0 mph 8.0 mph 67% 0.00 in 925 W/m2
11:12 70.4 °F 58.1 °F 29.81 in NNW 4.0 mph 4.0 mph 65% 0.00 in 923 W/m2
11:18 71.2 °F 57.5 °F 29.80 in SSW 4.0 mph 7.0 mph 62% 0.00 in 935 W/m2
11:24 71.2 °F 58.8 °F 29.80 in WSW 4.0 mph 9.0 mph 65% 0.00 in 260 W/m2
11:30 71.6 °F 58.8 °F 29.80 in SW 3.0 mph 3.0 mph 64% 0.00 in 1086 W/m2
11:36 71.7 °F 57.1 °F 29.80 in West 3.0 mph 5.0 mph 60% 0.00 in 1113 W/m2
11:42 72.6 °F 59.3 °F 29.80 in SSW 3.0 mph 6.0 mph 63% 0.00 in 1162 W/m2
11:48 72.4 °F 58.2 °F 29.80 in WSW 3.0 mph 7.0 mph 61% 0.00 in 345 W/m2
12:00 71.9 °F 59.1 °F 29.80 in West 5.0 mph 5.0 mph 64% 0.00 in 1034 W/m2
12:06 72.1 °F 58.4 °F 29.80 in WSW 5.0 mph 6.0 mph 62% 0.00 in 1171 W/m2
12:12 72.7 °F 59.8 °F 29.80 in WSW 4.0 mph 6.0 mph 64% 0.00 in 1176 W/m2
12:18 72.1 °F 58.8 °F 29.80 in NW 4.0 mph 9.0 mph 63% 0.00 in 1111 W/m2
12:24 73.2 °F 59.4 °F 29.80 in WSW 4.0 mph 6.0 mph 62% 0.00 in 1136 W/m2
12:30 73.0 °F 58.8 °F 29.80 in West 4.0 mph 4.0 mph 61% 0.00 in 1078 W/m2
12:36 73.3 °F 58.1 °F 29.80 in WSW 2.0 mph 4.0 mph 59% 0.00 in 1111 W/m2
12:42 72.9 °F 58.7 °F 29.80 in NW 2.0 mph 5.0 mph 61% 0.00 in 1121 W/m2
12:48 73.5 °F 59.2 °F 29.81 in WSW 2.0 mph 5.0 mph 61% 0.00 in 315 W/m2
12:54 72.2 °F 57.5 °F 29.81 in NW 2.0 mph 5.0 mph 60% 0.00 in 174 W/m2
13:00 71.6 °F 57.4 °F 29.80 in SW 2.0 mph 6.0 mph 61% 0.00 in 1055 W/m2
13:06 73.6 °F 59.8 °F 29.80 in SW 3.0 mph 6.0 mph 62% 0.00 in 1065 W/m2
13:12 74.2 °F 57.5 °F 29.80 in SW 2.0 mph 3.0 mph 56% 0.00 in 297 W/m2
13:18 73.6 °F 56.4 °F 29.80 in West 4.0 mph 7.0 mph 55% 0.00 in 1201 W/m2
13:24 72.4 °F 56.3 °F 29.80 in SW 5.0 mph 9.0 mph 57% 0.00 in 153 W/m2
13:30 71.6 °F 56.5 °F 29.80 in West 3.0 mph 7.0 mph 59% 0.00 in 192 W/m2
13:36 71.4 °F 56.8 °F 29.80 in WSW 3.0 mph 7.0 mph 60% 0.00 in 308 W/m2
13:42 72.9 °F 60.9 °F 29.79 in NW 2.0 mph 3.0 mph 66% 0.00 in 1113 W/m2
13:48 73.1 °F 57.0 °F 29.79 in West 3.0 mph 7.0 mph 57% 0.00 in 311 W/m2
13:54 74.0 °F 59.2 °F 29.80 in West 4.0 mph 4.0 mph 60% 0.00 in 1051 W/m2
14:00 75.1 °F 59.8 °F 29.80 in WSW 2.0 mph 3.0 mph 59% 0.00 in 997 W/m2
14:06 75.2 °F 57.4 °F 29.80 in West 3.0 mph 3.0 mph 54% 0.00 in 1016 W/m2
14:12 74.7 °F 56.9 °F 29.81 in NNW 3.0 mph 9.0 mph 54% 0.00 in 304 W/m2
14:18 70.5 °F 56.4 °F 29.81 in NW 4.0 mph 9.0 mph 61% 0.00 in 239 W/m2
14:24 69.2 °F 54.7 °F 29.81 in NW 3.0 mph 5.0 mph 60% 0.00 in 322 W/m2
14:30 67.8 °F 55.2 °F 29.81 in NW 4.0 mph 4.0 mph 64% 0.00 in 232 W/m2
14:36 67.8 °F 56.0 °F 29.81 in NW 3.0 mph 5.0 mph 66% 0.00 in 308 W/m2
14:42 68.2 °F 58.4 °F 29.82 in NW 2.0 mph 3.0 mph 71% 0.00 in 311 W/m2
14:48 70.3 °F 58.8 °F 29.82 in NW 1.0 mph 3.0 mph 67% 0.00 in 497 W/m2
14:54 71.1 °F 59.2 °F 29.82 in NW 2.0 mph 4.0 mph 66% 0.00 in 1027 W/m2
15:00 70.7 °F 58.4 °F 29.82 in NW 2.0 mph 2.0 mph 65% 0.00 in 190 W/m2
15:06 69.9 °F 58.0 °F 29.81 in North 3.0 mph 4.0 mph 66% 0.00 in 232 W/m2
15:12 69.8 °F 58.3 °F 29.81 in NW 3.0 mph 3.0 mph 67% 0.00 in 162 W/m2
15:18 69.3 °F 58.7 °F 29.82 in NW 2.0 mph 3.0 mph 69% 0.00 in 111 W/m2
15:24 68.5 °F 59.1 °F 29.82 in North 2.0 mph 3.0 mph 72% 0.00 in 49 W/m2
15:30 67.7 °F 59.5 °F 29.83 in WSW 2.0 mph 2.0 mph 75% 0.00 in 165 W/m2
15:36 67.3 °F 59.8 °F 29.83 in West 2.0 mph 3.0 mph 77% 0.00 in 139 W/m2
15:42 67.1 °F 60.0 °F 29.83 in West 1.0 mph 1.0 mph 78% 0.00 in 156 W/m2
15:48 67.5 °F 61.5 °F 29.83 in NNW 1.0 mph 1.0 mph 81% 0.00 in 271 W/m2
15:54 67.6 °F 61.6 °F 29.83 in North 2.0 mph 4.0 mph 81% 0.00 in 244 W/m2
16:00 68.6 °F 61.8 °F 29.82 in North 1.0 mph 1.0 mph 79% 0.00 in 877 W/m2
16:06 68.7 °F 61.2 °F 29.83 in Calm   1.0 mph 77% 0.00 in 153 W/m2
16:12 68.1 °F 59.9 °F 29.83 in NW 1.0 mph 4.0 mph 75% 0.00 in 134 W/m2
16:18 67.5 °F 60.0 °F 29.82 in NW 1.0 mph 4.0 mph 77% 0.00 in 158 W/m2
16:24 67.2 °F 60.1 °F 29.82 in NW 1.0 mph 2.0 mph 78% 0.00 in 109 W/m2
16:30 66.9 °F 60.9 °F 29.83 in NW 1.0 mph 1.0 mph 81% 0.00 in 76 W/m2
16:36 66.1 °F 60.1 °F 29.84 in NW 1.0 mph 1.0 mph 81% 0.31 in 86 W/m2
16:42 65.8 °F 60.8 °F 29.83 in Calm     84% 0.10 in 244 W/m2
16:48 66.1 °F 61.5 °F 29.83 in Calm     85% 0.05 in 149 W/m2
16:54 66.2 °F 61.2 °F 29.83 in Calm   1.0 mph 84% 0.00 in 199 W/m2
17:00 66.6 °F 61.9 °F 29.83 in Calm     85% 0.00 in 128 W/m2
17:06 66.8 °F 61.5 °F 29.83 in Calm     83% 0.00 in 53 W/m2
17:12 66.9 °F 61.2 °F 29.82 in Calm     82% 0.00 in 46 W/m2
17:18 67.3 °F 60.9 °F 29.82 in Calm   3.0 mph 80% 0.00 in 44 W/m2
17:24 67.7 °F 61.3 °F 29.82 in NW 1.0 mph 2.0 mph 80% 0.00 in 44 W/m2
17:30 68.1 °F 61.7 °F 29.82 in NW 1.0 mph 2.0 mph 80% 0.00 in 42 W/m2
17:36 68.4 °F 61.3 °F 29.82 in NW 1.0 mph 2.0 mph 78% 0.00 in 39 W/m2
17:42 68.3 °F 61.2 °F 29.82 in NNW 1.0 mph 2.0 mph 78% 0.00 in 63 W/m2
17:48 68.4 °F 60.5 °F 29.83 in North 2.0 mph 5.0 mph 76% 0.00 in 49 W/m2
17:54 68.7 °F 60.8 °F 29.83 in North 1.0 mph 1.0 mph 76% 0.00 in 46 W/m2
18:00 69.0 °F 60.7 °F 29.83 in North 1.0 mph 2.0 mph 75% 0.00 in 63 W/m2
18:06 69.2 °F 60.6 °F 29.83 in North 1.0 mph 2.0 mph 74% 0.00 in 128 W/m2
18:12 69.2 °F 60.6 °F 29.83 in North 1.0 mph 1.0 mph 74% 0.00 in 54 W/m2
18:18 69.4 °F 60.8 °F 29.83 in North 1.0 mph 4.0 mph 74% 0.00 in 42 W/m2
18:24 69.4 °F 61.1 °F 29.83 in North 2.0 mph 2.0 mph 75% 0.00 in 28 W/m2
18:30 69.1 °F 60.1 °F 29.83 in NW 1.0 mph 2.0 mph 73% 0.00 in 65 W/m2
18:36 68.8 °F 59.4 °F 29.83 in NNW 2.0 mph 2.0 mph 72% 0.00 in 39 W/m2
18:42 69.0 °F 58.8 °F 29.83 in WNW 1.0 mph 2.0 mph 70% 0.00 in 37 W/m2
18:48 68.9 °F 58.3 °F 29.84 in NW 1.0 mph 4.0 mph 69% 0.00 in 32 W/m2
18:54 68.3 °F 57.3 °F 29.84 in NW 1.0 mph 1.0 mph 68% 0.00 in 54 W/m2
19:00 67.7 °F 57.6 °F 29.84 in NW 1.0 mph 1.0 mph 70% 0.00 in 72 W/m2
19:06 67.4 °F 56.9 °F 29.84 in NW 1.0 mph 2.0 mph 69% 0.00 in 77 W/m2
19:12 67.4 °F 56.9 °F 29.85 in NNE 2.0 mph 5.0 mph 69% 0.00 in 95 W/m2
19:18 67.4 °F 56.5 °F 29.85 in NNW 2.0 mph 5.0 mph 68% 0.00 in 51 W/m2
19:24 67.2 °F 56.7 °F 29.85 in NNW 1.0 mph 2.0 mph 69% 0.00 in 44 W/m2
19:30 66.7 °F 55.8 °F 29.85 in NNW 1.0 mph 1.0 mph 68% 0.00 in 40 W/m2
19:36 66.4 °F 55.5 °F 29.85 in NNW 1.0 mph 1.0 mph 68% 0.00 in 33 W/m2
19:42 66.1 °F 55.6 °F 29.85 in Calm     69% 0.00 in 25 W/m2
19:48 65.9 °F 55.8 °F 29.85 in Calm     70% 0.00 in 21 W/m2
19:54 65.7 °F 55.6 °F 29.85 in Calm     70% 0.00 in 32 W/m2
20:00 65.5 °F 57.4 °F 29.85 in Calm     75% 0.00 in 37 W/m2
20:06 64.5 °F 57.5 °F 29.85 in Calm     78% 0.00 in 32 W/m2
20:12 64.0 °F 57.7 °F 29.85 in Calm     80% 0.00 in 11 W/m2
20:18 63.7 °F 57.4 °F 29.86 in Calm     80% 0.00 in 9 W/m2
20:24 63.5 °F 57.6 °F 29.85 in Calm     81% 0.00 in 9 W/m2
20:30 63.2 °F 57.3 °F 29.85 in Calm     81% 0.00 in 9 W/m2
20:36 62.7 °F 56.8 °F 29.85 in Calm     81% 0.00 in 7 W/m2
20:42 62.3 °F 57.1 °F 29.85 in Calm     83% 0.00 in 0 W/m2
20:48 61.9 °F 57.0 °F 29.85 in Calm     84% 0.00 in 0 W/m2
20:54 61.6 °F 57.0 °F 29.85 in Calm     85% 0.00 in 0 W/m2
21:00 61.4 °F 57.2 °F 29.85 in Calm     86% 0.00 in 0 W/m2
21:06 61.2 °F 57.3 °F 29.85 in Calm     87% 0.00 in 0 W/m2
21:12 61.0 °F 57.1 °F 29.85 in Calm     87% 0.00 in 0 W/m2
21:18 60.7 °F 56.8 °F 29.85 in Calm     87% 0.00 in 0 W/m2
21:24 60.6 °F 56.7 °F 29.85 in Calm     87% 0.00 in 0 W/m2
21:30 60.6 °F 56.7 °F 29.85 in Calm     87% 0.00 in 0 W/m2
21:36 60.6 °F 56.7 °F 29.86 in Calm     87% 0.00 in 0 W/m2
21:42 60.5 °F 56.6 °F 29.86 in Calm     87% 0.00 in 0 W/m2
21:48 60.5 °F 56.9 °F 29.86 in Calm     88% 0.00 in 0 W/m2
21:54 60.3 °F 56.4 °F 29.86 in Calm     87% 0.00 in 0 W/m2
22:00 60.0 °F 56.4 °F 29.86 in Calm     88% 0.00 in 0 W/m2
22:06 59.8 °F 56.2 °F 29.86 in Calm     88% 0.00 in 0 W/m2
22:12 59.7 °F 56.1 °F 29.86 in Calm     88% 0.00 in 0 W/m2
22:18 59.5 °F 56.3 °F 29.86 in Calm     89% 0.00 in 0 W/m2
22:24 59.3 °F 56.1 °F 29.85 in Calm     89% 0.00 in 0 W/m2
22:30 59.1 °F 55.9 °F 29.85 in Calm     89% 0.00 in 0 W/m2
22:36 59.1 °F 56.2 °F 29.85 in Calm     90% 0.00 in 0 W/m2
22:42 59.0 °F 56.1 °F 29.85 in Calm     90% 0.00 in 0 W/m2
22:48 58.7 °F 55.8 °F 29.85 in Calm     90% 0.00 in 0 W/m2
22:54 58.6 °F 55.7 °F 29.85 in Calm     90% 0.00 in 0 W/m2
23:00 58.7 °F 55.8 °F 29.85 in Calm     90% 0.00 in 0 W/m2
23:06 58.7 °F 55.8 °F 29.85 in Calm     90% 0.00 in 0 W/m2
23:12 58.6 °F 56.0 °F 29.85 in Calm     91% 0.00 in 0 W/m2
23:18 58.4 °F 55.8 °F 29.85 in Calm     91% 0.00 in 0 W/m2
23:24 58.2 °F 55.3 °F 29.85 in Calm     90% 0.00 in 0 W/m2
23:30 58.1 °F 55.5 °F 29.85 in Calm     91% 0.00 in 0 W/m2
23:36 58.0 °F 55.4 °F 29.85 in Calm     91% 0.00 in 0 W/m2
23:42 57.9 °F 55.3 °F 29.85 in Calm     91% 0.00 in 0 W/m2
23:48 57.7 °F 55.1 °F 29.85 in Calm     91% 0.00 in 0 W/m2
23:54 57.7 °F 55.1 °F 29.85 in Calm     91% 0.00 in 0 W/m2
Country Meadow, Clay, NY, USA
Compliments of Weather Underground - 2 mb